sensor_id;sensor_type;location;lat;lon;timestamp;P1;durP1;ratioP1;P2;durP2;ratioP2
10890;SDS011;5498;50.928;11.598;2022-08-23T00:00:17;978.50;;;892.57;;
10890;SDS011;5498;50.928;11.598;2022-08-23T00:03:20;982.80;;;896.53;;
10890;SDS011;5498;50.928;11.598;2022-08-23T00:06:22;985.77;;;898.80;;
10890;SDS011;5498;50.928;11.598;2022-08-23T00:09:24;987.60;;;900.43;;
10890;SDS011;5498;50.928;11.598;2022-08-23T00:12:28;983.20;;;896.67;;
10890;SDS011;5498;50.928;11.598;2022-08-23T00:15:30;979.90;;;892.97;;
10890;SDS011;5498;50.928;11.598;2022-08-23T00:18:33;987.73;;;900.87;;
10890;SDS011;5498;50.928;11.598;2022-08-23T00:21:36;980.27;;;894.00;;
10890;SDS011;5498;50.928;11.598;2022-08-23T00:24:38;987.00;;;899.97;;
10890;SDS011;5498;50.928;11.598;2022-08-23T00:27:40;968.50;;;881.97;;
10890;SDS011;5498;50.928;11.598;2022-08-23T00:30:43;973.33;;;887.03;;
10890;SDS011;5498;50.928;11.598;2022-08-23T00:33:46;963.93;;;878.03;;
10890;SDS011;5498;50.928;11.598;2022-08-23T00:36:48;978.97;;;891.73;;
10890;SDS011;5498;50.928;11.598;2022-08-23T00:39:50;971.43;;;884.43;;
10890;SDS011;5498;50.928;11.598;2022-08-23T00:42:54;961.97;;;874.97;;
10890;SDS011;5498;50.928;11.598;2022-08-23T00:46:21;977.13;;;888.93;;
10890;SDS011;5498;50.928;11.598;2022-08-23T00:49:58;959.77;;;872.77;;
10890;SDS011;5498;50.928;11.598;2022-08-23T00:53:22;975.03;;;886.87;;
10890;SDS011;5498;50.928;11.598;2022-08-23T00:56:28;980.50;;;892.17;;
10890;SDS011;5498;50.928;11.598;2022-08-23T00:59:33;967.40;;;879.17;;
10890;SDS011;5498;50.928;11.598;2022-08-23T01:02:35;970.50;;;881.87;;
10890;SDS011;5498;50.928;11.598;2022-08-23T01:05:42;869.30;;;787.60;;
10890;SDS011;5498;50.928;11.598;2022-08-23T01:08:50;873.00;;;791.03;;
10890;SDS011;5498;50.928;11.598;2022-08-23T01:11:59;912.20;;;828.83;;
10890;SDS011;5498;50.928;11.598;2022-08-23T01:15:08;915.63;;;832.13;;
10890;SDS011;5498;50.928;11.598;2022-08-23T01:18:15;880.53;;;798.77;;
10890;SDS011;5498;50.928;11.598;2022-08-23T01:21:24;907.87;;;824.50;;
10890;SDS011;5498;50.928;11.598;2022-08-23T01:24:32;911.33;;;828.00;;
10890;SDS011;5498;50.928;11.598;2022-08-23T01:27:36;902.63;;;819.67;;
10890;SDS011;5498;50.928;11.598;2022-08-23T01:30:39;881.93;;;800.07;;
10890;SDS011;5498;50.928;11.598;2022-08-23T01:33:45;877.17;;;795.30;;
10890;SDS011;5498;50.928;11.598;2022-08-23T01:36:52;893.63;;;810.60;;
10890;SDS011;5498;50.928;11.598;2022-08-23T01:39:56;895.30;;;813.03;;
10890;SDS011;5498;50.928;11.598;2022-08-23T01:42:58;874.07;;;792.30;;
10890;SDS011;5498;50.928;11.598;2022-08-23T01:46:05;874.27;;;792.40;;
10890;SDS011;5498;50.928;11.598;2022-08-23T01:49:09;868.33;;;786.90;;
10890;SDS011;5498;50.928;11.598;2022-08-23T01:52:12;839.90;;;759.13;;
10890;SDS011;5498;50.928;11.598;2022-08-23T01:55:16;862.63;;;781.47;;
10890;SDS011;5498;50.928;11.598;2022-08-23T01:58:19;849.60;;;768.90;;
10890;SDS011;5498;50.928;11.598;2022-08-23T02:01:21;850.20;;;769.50;;
10890;SDS011;5498;50.928;11.598;2022-08-23T02:04:23;848.23;;;767.47;;
10890;SDS011;5498;50.928;11.598;2022-08-23T02:07:26;841.93;;;761.70;;
10890;SDS011;5498;50.928;11.598;2022-08-23T02:10:30;843.70;;;763.30;;
10890;SDS011;5498;50.928;11.598;2022-08-23T02:13:32;832.63;;;752.40;;
10890;SDS011;5498;50.928;11.598;2022-08-23T02:16:35;839.07;;;758.73;;
10890;SDS011;5498;50.928;11.598;2022-08-23T02:19:39;854.63;;;773.53;;
10890;SDS011;5498;50.928;11.598;2022-08-23T02:22:42;836.53;;;756.50;;
10890;SDS011;5498;50.928;11.598;2022-08-23T02:25:46;842.33;;;761.73;;
10890;SDS011;5498;50.928;11.598;2022-08-23T02:28:49;828.53;;;748.07;;
10890;SDS011;5498;50.928;11.598;2022-08-23T02:31:52;834.63;;;754.27;;
10890;SDS011;5498;50.928;11.598;2022-08-23T02:34:54;809.70;;;730.37;;
10890;SDS011;5498;50.928;11.598;2022-08-23T02:37:56;835.70;;;755.10;;
10890;SDS011;5498;50.928;11.598;2022-08-23T02:41:00;863.10;;;781.30;;
10890;SDS011;5498;50.928;11.598;2022-08-23T02:44:03;849.90;;;768.73;;
10890;SDS011;5498;50.928;11.598;2022-08-23T02:47:05;840.27;;;759.60;;
10890;SDS011;5498;50.928;11.598;2022-08-23T02:50:08;834.07;;;753.73;;
10890;SDS011;5498;50.928;11.598;2022-08-23T02:53:10;831.73;;;751.90;;
10890;SDS011;5498;50.928;11.598;2022-08-23T02:56:14;843.27;;;761.90;;
10890;SDS011;5498;50.928;11.598;2022-08-23T02:59:16;854.00;;;772.53;;
10890;SDS011;5498;50.928;11.598;2022-08-23T03:02:18;835.00;;;754.53;;
10890;SDS011;5498;50.928;11.598;2022-08-23T03:05:20;819.97;;;740.03;;
10890;SDS011;5498;50.928;11.598;2022-08-23T03:08:22;871.73;;;789.87;;
10890;SDS011;5498;50.928;11.598;2022-08-23T03:11:26;877.10;;;794.57;;
10890;SDS011;5498;50.928;11.598;2022-08-23T03:14:28;847.80;;;766.90;;
10890;SDS011;5498;50.928;11.598;2022-08-23T03:17:30;851.47;;;770.17;;
10890;SDS011;5498;50.928;11.598;2022-08-23T03:20:32;838.43;;;757.43;;
10890;SDS011;5498;50.928;11.598;2022-08-23T03:23:35;836.57;;;756.00;;
10890;SDS011;5498;50.928;11.598;2022-08-23T03:26:41;869.20;;;786.90;;
10890;SDS011;5498;50.928;11.598;2022-08-23T03:29:44;859.20;;;776.97;;
10890;SDS011;5498;50.928;11.598;2022-08-23T03:32:46;865.43;;;782.97;;
10890;SDS011;5498;50.928;11.598;2022-08-23T03:35:48;862.03;;;779.50;;
10890;SDS011;5498;50.928;11.598;2022-08-23T03:38:50;838.97;;;758.10;;
10890;SDS011;5498;50.928;11.598;2022-08-23T03:41:54;854.73;;;773.03;;
10890;SDS011;5498;50.928;11.598;2022-08-23T03:44:55;869.70;;;787.07;;
10890;SDS011;5498;50.928;11.598;2022-08-23T03:47:59;863.90;;;781.60;;
10890;SDS011;5498;50.928;11.598;2022-08-23T03:51:03;848.40;;;766.53;;
10890;SDS011;5498;50.928;11.598;2022-08-23T03:54:05;843.77;;;762.27;;
10890;SDS011;5498;50.928;11.598;2022-08-23T03:57:08;848.83;;;767.17;;
10890;SDS011;5498;50.928;11.598;2022-08-23T04:00:11;863.23;;;780.47;;
10890;SDS011;5498;50.928;11.598;2022-08-23T04:03:15;864.30;;;781.73;;
10890;SDS011;5498;50.928;11.598;2022-08-23T04:06:17;850.20;;;768.37;;
10890;SDS011;5498;50.928;11.598;2022-08-23T04:09:20;854.43;;;771.90;;
10890;SDS011;5498;50.928;11.598;2022-08-23T04:12:23;843.30;;;761.73;;
10890;SDS011;5498;50.928;11.598;2022-08-23T04:15:25;856.80;;;774.03;;
10890;SDS011;5498;50.928;11.598;2022-08-23T04:18:27;834.80;;;753.20;;
10890;SDS011;5498;50.928;11.598;2022-08-23T04:21:31;838.60;;;756.63;;
10890;SDS011;5498;50.928;11.598;2022-08-23T04:24:34;840.03;;;758.17;;
10890;SDS011;5498;50.928;11.598;2022-08-23T04:27:38;850.50;;;768.67;;
10890;SDS011;5498;50.928;11.598;2022-08-23T04:30:40;837.33;;;755.20;;
10890;SDS011;5498;50.928;11.598;2022-08-23T04:33:44;836.33;;;753.27;;
10890;SDS011;5498;50.928;11.598;2022-08-23T04:36:46;860.37;;;776.67;;
10890;SDS011;5498;50.928;11.598;2022-08-23T04:39:49;853.63;;;770.33;;
10890;SDS011;5498;50.928;11.598;2022-08-23T04:43:12;840.83;;;758.40;;
10890;SDS011;5498;50.928;11.598;2022-08-23T04:46:17;738.70;;;662.30;;
10890;SDS011;5498;50.928;11.598;2022-08-23T04:49:19;851.30;;;768.57;;
10890;SDS011;5498;50.928;11.598;2022-08-23T04:52:22;849.70;;;767.13;;
10890;SDS011;5498;50.928;11.598;2022-08-23T04:55:24;826.73;;;745.73;;
10890;SDS011;5498;50.928;11.598;2022-08-23T04:58:27;851.43;;;768.30;;
10890;SDS011;5498;50.928;11.598;2022-08-23T05:01:29;847.97;;;764.90;;
10890;SDS011;5498;50.928;11.598;2022-08-23T05:04:31;829.30;;;748.03;;
10890;SDS011;5498;50.928;11.598;2022-08-23T05:07:33;834.30;;;752.13;;
10890;SDS011;5498;50.928;11.598;2022-08-23T05:11:16;843.63;;;761.80;;
10890;SDS011;5498;50.928;11.598;2022-08-23T05:14:27;838.10;;;756.77;;
10890;SDS011;5498;50.928;11.598;2022-08-23T05:17:44;852.47;;;769.97;;
10890;SDS011;5498;50.928;11.598;2022-08-23T05:20:46;868.27;;;786.00;;
10890;SDS011;5498;50.928;11.598;2022-08-23T05:23:48;681.97;;;607.37;;
10890;SDS011;5498;50.928;11.598;2022-08-23T05:26:51;765.10;;;687.80;;
10890;SDS011;5498;50.928;11.598;2022-08-23T05:29:54;777.37;;;699.97;;
10890;SDS011;5498;50.928;11.598;2022-08-23T05:32:56;829.33;;;749.97;;
10890;SDS011;5498;50.928;11.598;2022-08-23T05:36:00;853.93;;;773.57;;
10890;SDS011;5498;50.928;11.598;2022-08-23T05:39:03;837.13;;;757.60;;
10890;SDS011;5498;50.928;11.598;2022-08-23T05:42:06;892.13;;;810.27;;
10890;SDS011;5498;50.928;11.598;2022-08-23T05:45:11;897.70;;;815.47;;
10890;SDS011;5498;50.928;11.598;2022-08-23T05:48:13;884.60;;;802.73;;
10890;SDS011;5498;50.928;11.598;2022-08-23T05:51:16;880.27;;;798.70;;
10890;SDS011;5498;50.928;11.598;2022-08-23T05:54:22;807.37;;;729.33;;
10890;SDS011;5498;50.928;11.598;2022-08-23T05:57:24;881.57;;;800.27;;
10890;SDS011;5498;50.928;11.598;2022-08-23T06:00:27;910.30;;;827.33;;
10890;SDS011;5498;50.928;11.598;2022-08-23T06:03:29;915.93;;;832.77;;
10890;SDS011;5498;50.928;11.598;2022-08-23T06:06:31;935.77;;;852.10;;
10890;SDS011;5498;50.928;11.598;2022-08-23T06:09:33;945.63;;;861.73;;
10890;SDS011;5498;50.928;11.598;2022-08-23T06:12:35;959.37;;;874.53;;
10890;SDS011;5498;50.928;11.598;2022-08-23T06:15:42;999.93;;;912.50;;
10890;SDS011;5498;50.928;11.598;2022-08-23T06:18:45;991.40;;;904.37;;
10890;SDS011;5498;50.928;11.598;2022-08-23T06:21:47;1020.60;;;932.73;;
10890;SDS011;5498;50.928;11.598;2022-08-23T06:24:50;999.97;;;913.30;;
10890;SDS011;5498;50.928;11.598;2022-08-23T06:27:52;1007.13;;;920.10;;
10890;SDS011;5498;50.928;11.598;2022-08-23T06:30:55;991.73;;;904.23;;
10890;SDS011;5498;50.928;11.598;2022-08-23T06:33:58;1051.73;;;961.63;;
10890;SDS011;5498;50.928;11.598;2022-08-23T06:37:00;1003.03;;;916.40;;
10890;SDS011;5498;50.928;11.598;2022-08-23T06:40:07;1006.00;;;918.83;;
10890;SDS011;5498;50.928;11.598;2022-08-23T06:43:09;1050.20;;;960.07;;
10890;SDS011;5498;50.928;11.598;2022-08-23T06:46:14;1057.70;;;967.67;;
10890;SDS011;5498;50.928;11.598;2022-08-23T06:49:18;1077.93;;;986.30;;
10890;SDS011;5498;50.928;11.598;2022-08-23T06:52:20;1100.33;;;999.90;;
10890;SDS011;5498;50.928;11.598;2022-08-23T06:55:22;1097.63;;;999.90;;
10890;SDS011;5498;50.928;11.598;2022-08-23T06:58:24;1105.20;;;999.90;;
10890;SDS011;5498;50.928;11.598;2022-08-23T07:01:29;1133.53;;;999.90;;
10890;SDS011;5498;50.928;11.598;2022-08-23T07:04:34;1153.00;;;999.90;;
10890;SDS011;5498;50.928;11.598;2022-08-23T07:07:38;1143.53;;;999.90;;
10890;SDS011;5498;50.928;11.598;2022-08-23T07:10:40;1182.87;;;999.90;;
10890;SDS011;5498;50.928;11.598;2022-08-23T07:13:42;1176.17;;;999.90;;
10890;SDS011;5498;50.928;11.598;2022-08-23T07:16:47;1193.70;;;999.90;;
10890;SDS011;5498;50.928;11.598;2022-08-23T07:19:51;1209.10;;;999.90;;
10890;SDS011;5498;50.928;11.598;2022-08-23T07:22:54;1218.37;;;999.90;;
10890;SDS011;5498;50.928;11.598;2022-08-23T07:25:56;1212.17;;;999.90;;
10890;SDS011;5498;50.928;11.598;2022-08-23T07:28:58;1227.90;;;999.90;;
10890;SDS011;5498;50.928;11.598;2022-08-23T07:32:02;1236.00;;;999.90;;
10890;SDS011;5498;50.928;11.598;2022-08-23T07:35:05;1246.23;;;999.90;;
10890;SDS011;5498;50.928;11.598;2022-08-23T07:38:07;1255.80;;;999.90;;
10890;SDS011;5498;50.928;11.598;2022-08-23T07:41:09;1246.63;;;999.90;;
10890;SDS011;5498;50.928;11.598;2022-08-23T07:44:12;1277.90;;;999.90;;
10890;SDS011;5498;50.928;11.598;2022-08-23T07:47:16;1278.87;;;999.90;;
10890;SDS011;5498;50.928;11.598;2022-08-23T07:50:18;1266.83;;;999.90;;
10890;SDS011;5498;50.928;11.598;2022-08-23T07:53:21;1285.73;;;999.90;;
10890;SDS011;5498;50.928;11.598;2022-08-23T07:56:24;1290.97;;;999.90;;
10890;SDS011;5498;50.928;11.598;2022-08-23T07:59:26;1315.57;;;999.90;;
10890;SDS011;5498;50.928;11.598;2022-08-23T08:02:30;1298.97;;;999.90;;
10890;SDS011;5498;50.928;11.598;2022-08-23T08:05:32;1310.73;;;999.90;;
10890;SDS011;5498;50.928;11.598;2022-08-23T08:08:34;1305.87;;;999.90;;
10890;SDS011;5498;50.928;11.598;2022-08-23T08:11:39;1318.70;;;999.90;;
10890;SDS011;5498;50.928;11.598;2022-08-23T08:14:43;1310.50;;;999.90;;
10890;SDS011;5498;50.928;11.598;2022-08-23T08:17:48;1346.33;;;999.90;;
10890;SDS011;5498;50.928;11.598;2022-08-23T08:20:51;1340.73;;;999.90;;
10890;SDS011;5498;50.928;11.598;2022-08-23T08:23:52;1343.03;;;999.90;;
10890;SDS011;5498;50.928;11.598;2022-08-23T08:26:55;1352.60;;;999.90;;
10890;SDS011;5498;50.928;11.598;2022-08-23T08:29:57;1355.10;;;999.90;;
10890;SDS011;5498;50.928;11.598;2022-08-23T08:33:00;1357.50;;;999.90;;
10890;SDS011;5498;50.928;11.598;2022-08-23T08:36:03;1356.03;;;999.90;;
10890;SDS011;5498;50.928;11.598;2022-08-23T08:39:09;1361.53;;;999.90;;
10890;SDS011;5498;50.928;11.598;2022-08-23T08:42:21;1349.53;;;999.90;;
10890;SDS011;5498;50.928;11.598;2022-08-23T08:45:48;1335.27;;;999.90;;
10890;SDS011;5498;50.928;11.598;2022-08-23T08:49:01;1338.93;;;999.90;;
10890;SDS011;5498;50.928;11.598;2022-08-23T08:52:09;1329.90;;;999.90;;
10890;SDS011;5498;50.928;11.598;2022-08-23T08:55:18;1313.30;;;999.90;;
10890;SDS011;5498;50.928;11.598;2022-08-23T08:58:27;1318.70;;;999.90;;
10890;SDS011;5498;50.928;11.598;2022-08-23T09:01:34;1315.00;;;999.90;;
10890;SDS011;5498;50.928;11.598;2022-08-23T09:04:49;1312.23;;;999.90;;
10890;SDS011;5498;50.928;11.598;2022-08-23T09:07:55;1313.97;;;999.90;;
10890;SDS011;5498;50.928;11.598;2022-08-23T09:11:12;1291.53;;;999.90;;
10890;SDS011;5498;50.928;11.598;2022-08-23T09:14:42;1302.23;;;999.90;;
10890;SDS011;5498;50.928;11.598;2022-08-23T09:18:08;1297.30;;;999.90;;
10890;SDS011;5498;50.928;11.598;2022-08-23T09:21:13;1296.57;;;999.90;;
10890;SDS011;5498;50.928;11.598;2022-08-23T09:24:16;1304.27;;;999.90;;
10890;SDS011;5498;50.928;11.598;2022-08-23T09:27:18;1319.60;;;999.90;;
10890;SDS011;5498;50.928;11.598;2022-08-23T09:30:19;1336.50;;;999.90;;
10890;SDS011;5498;50.928;11.598;2022-08-23T09:33:23;1313.57;;;999.90;;
10890;SDS011;5498;50.928;11.598;2022-08-23T09:36:39;1325.77;;;999.90;;
10890;SDS011;5498;50.928;11.598;2022-08-23T09:39:45;1316.13;;;999.90;;
10890;SDS011;5498;50.928;11.598;2022-08-23T09:43:01;1325.00;;;999.90;;
10890;SDS011;5498;50.928;11.598;2022-08-23T09:46:11;1319.50;;;999.90;;
10890;SDS011;5498;50.928;11.598;2022-08-23T09:49:28;1310.10;;;999.90;;
10890;SDS011;5498;50.928;11.598;2022-08-23T09:52:32;1307.37;;;999.90;;
10890;SDS011;5498;50.928;11.598;2022-08-23T09:55:38;1314.87;;;999.90;;
10890;SDS011;5498;50.928;11.598;2022-08-23T09:58:45;1294.23;;;999.90;;
10890;SDS011;5498;50.928;11.598;2022-08-23T10:01:50;1295.73;;;999.90;;
10890;SDS011;5498;50.928;11.598;2022-08-23T10:04:55;1313.67;;;999.90;;
10890;SDS011;5498;50.928;11.598;2022-08-23T10:08:03;1333.50;;;999.90;;
10890;SDS011;5498;50.928;11.598;2022-08-23T10:11:09;1325.20;;;999.90;;
10890;SDS011;5498;50.928;11.598;2022-08-23T10:14:17;1314.47;;;999.90;;
10890;SDS011;5498;50.928;11.598;2022-08-23T10:17:25;1312.67;;;999.90;;
10890;SDS011;5498;50.928;11.598;2022-08-23T10:20:38;1330.67;;;999.90;;
10890;SDS011;5498;50.928;11.598;2022-08-23T10:23:49;1316.03;;;999.90;;
10890;SDS011;5498;50.928;11.598;2022-08-23T10:27:17;1328.27;;;999.90;;
10890;SDS011;5498;50.928;11.598;2022-08-23T10:30:47;1330.37;;;999.90;;
10890;SDS011;5498;50.928;11.598;2022-08-23T10:34:02;1337.37;;;999.90;;
10890;SDS011;5498;50.928;11.598;2022-08-23T10:37:32;1332.57;;;999.90;;
10890;SDS011;5498;50.928;11.598;2022-08-23T10:40:59;1334.13;;;999.90;;
10890;SDS011;5498;50.928;11.598;2022-08-23T10:44:18;1340.87;;;999.90;;
10890;SDS011;5498;50.928;11.598;2022-08-23T10:47:27;1325.97;;;999.90;;
10890;SDS011;5498;50.928;11.598;2022-08-23T10:50:40;1326.77;;;999.90;;
10890;SDS011;5498;50.928;11.598;2022-08-23T10:53:48;1325.97;;;999.90;;
10890;SDS011;5498;50.928;11.598;2022-08-23T10:57:00;1313.83;;;999.90;;
10890;SDS011;5498;50.928;11.598;2022-08-23T11:00:05;1307.43;;;999.90;;
10890;SDS011;5498;50.928;11.598;2022-08-23T11:03:15;1302.20;;;999.90;;
10890;SDS011;5498;50.928;11.598;2022-08-23T11:09:54;1295.83;;;999.90;;
10890;SDS011;5498;50.928;11.598;2022-08-23T11:13:19;1288.93;;;999.90;;
10890;SDS011;5498;50.928;11.598;2022-08-23T11:16:28;1307.33;;;999.90;;
10890;SDS011;5498;50.928;11.598;2022-08-23T11:19:48;1298.93;;;999.90;;
10890;SDS011;5498;50.928;11.598;2022-08-23T11:23:12;1306.17;;;999.90;;
10890;SDS011;5498;50.928;11.598;2022-08-23T11:33:49;1293.40;;;999.90;;
10890;SDS011;5498;50.928;11.598;2022-08-23T11:47:39;1300.10;;;999.90;;
10890;SDS011;5498;50.928;11.598;2022-08-23T11:57:59;1283.40;;;999.90;;
10890;SDS011;5498;50.928;11.598;2022-08-23T12:01:26;1279.97;;;999.90;;
10890;SDS011;5498;50.928;11.598;2022-08-23T12:30:33;1275.67;;;999.90;;
10890;SDS011;5498;50.928;11.598;2022-08-23T12:34:16;1273.87;;;999.90;;
10890;SDS011;5498;50.928;11.598;2022-08-23T12:37:40;1274.23;;;999.90;;
10890;SDS011;5498;50.928;11.598;2022-08-23T12:52:15;1263.50;;;999.90;;
10890;SDS011;5498;50.928;11.598;2022-08-23T12:55:18;1273.40;;;999.90;;
10890;SDS011;5498;50.928;11.598;2022-08-23T12:58:25;1278.70;;;999.90;;
10890;SDS011;5498;50.928;11.598;2022-08-23T13:01:31;1287.37;;;999.90;;
10890;SDS011;5498;50.928;11.598;2022-08-23T13:04:38;1270.40;;;999.90;;
10890;SDS011;5498;50.928;11.598;2022-08-23T13:07:42;1269.27;;;999.90;;
10890;SDS011;5498;50.928;11.598;2022-08-23T13:10:44;1268.73;;;999.90;;
10890;SDS011;5498;50.928;11.598;2022-08-23T13:13:48;1262.27;;;999.90;;
10890;SDS011;5498;50.928;11.598;2022-08-23T13:16:50;1267.30;;;999.90;;
10890;SDS011;5498;50.928;11.598;2022-08-23T13:19:53;1266.77;;;999.90;;
10890;SDS011;5498;50.928;11.598;2022-08-23T13:23:16;1276.87;;;999.90;;
10890;SDS011;5498;50.928;11.598;2022-08-23T13:26:33;1276.63;;;999.90;;
10890;SDS011;5498;50.928;11.598;2022-08-23T13:29:49;1277.40;;;999.90;;
10890;SDS011;5498;50.928;11.598;2022-08-23T13:36:22;1256.80;;;999.90;;
10890;SDS011;5498;50.928;11.598;2022-08-23T13:39:25;1267.63;;;999.90;;
10890;SDS011;5498;50.928;11.598;2022-08-23T13:42:29;1275.07;;;999.90;;
10890;SDS011;5498;50.928;11.598;2022-08-23T13:45:43;1259.63;;;999.90;;
10890;SDS011;5498;50.928;11.598;2022-08-23T13:48:48;1266.93;;;999.90;;
10890;SDS011;5498;50.928;11.598;2022-08-23T13:52:02;1237.90;;;999.90;;
10890;SDS011;5498;50.928;11.598;2022-08-23T13:55:09;1236.87;;;999.90;;
10890;SDS011;5498;50.928;11.598;2022-08-23T13:58:13;1229.33;;;999.90;;
10890;SDS011;5498;50.928;11.598;2022-08-23T14:01:25;1219.97;;;999.90;;
10890;SDS011;5498;50.928;11.598;2022-08-23T14:04:28;1228.63;;;999.90;;
10890;SDS011;5498;50.928;11.598;2022-08-23T14:07:30;1219.00;;;999.90;;
10890;SDS011;5498;50.928;11.598;2022-08-23T14:10:33;1233.07;;;999.90;;
10890;SDS011;5498;50.928;11.598;2022-08-23T14:13:35;1235.97;;;999.90;;
10890;SDS011;5498;50.928;11.598;2022-08-23T14:16:38;1235.63;;;999.90;;
10890;SDS011;5498;50.928;11.598;2022-08-23T14:19:41;1238.50;;;999.90;;
10890;SDS011;5498;50.928;11.598;2022-08-23T14:22:46;1252.67;;;999.90;;
10890;SDS011;5498;50.928;11.598;2022-08-23T14:25:50;1248.17;;;999.90;;
10890;SDS011;5498;50.928;11.598;2022-08-23T14:28:57;1232.33;;;999.90;;
10890;SDS011;5498;50.928;11.598;2022-08-23T14:31:59;1232.93;;;999.90;;
10890;SDS011;5498;50.928;11.598;2022-08-23T14:35:01;1236.97;;;999.90;;
10890;SDS011;5498;50.928;11.598;2022-08-23T14:38:04;1220.90;;;999.90;;
10890;SDS011;5498;50.928;11.598;2022-08-23T14:41:08;1220.67;;;999.90;;
10890;SDS011;5498;50.928;11.598;2022-08-23T14:44:14;1229.77;;;999.90;;
10890;SDS011;5498;50.928;11.598;2022-08-23T14:47:17;1257.07;;;999.90;;
10890;SDS011;5498;50.928;11.598;2022-08-23T14:50:20;1250.20;;;999.90;;
10890;SDS011;5498;50.928;11.598;2022-08-23T14:53:23;1249.83;;;999.90;;
10890;SDS011;5498;50.928;11.598;2022-08-23T14:56:29;1245.47;;;999.90;;
10890;SDS011;5498;50.928;11.598;2022-08-23T14:59:32;1246.03;;;999.90;;
10890;SDS011;5498;50.928;11.598;2022-08-23T15:02:34;1245.07;;;999.90;;
10890;SDS011;5498;50.928;11.598;2022-08-23T15:05:36;1255.20;;;999.90;;
10890;SDS011;5498;50.928;11.598;2022-08-23T15:08:38;1246.03;;;999.90;;
10890;SDS011;5498;50.928;11.598;2022-08-23T15:11:42;1241.77;;;999.90;;
10890;SDS011;5498;50.928;11.598;2022-08-23T15:14:44;1243.90;;;999.90;;
10890;SDS011;5498;50.928;11.598;2022-08-23T15:17:48;1241.97;;;999.90;;
10890;SDS011;5498;50.928;11.598;2022-08-23T15:20:52;1237.07;;;999.90;;
10890;SDS011;5498;50.928;11.598;2022-08-23T15:23:54;1225.87;;;999.90;;
10890;SDS011;5498;50.928;11.598;2022-08-23T15:26:57;1237.07;;;999.90;;
10890;SDS011;5498;50.928;11.598;2022-08-23T15:30:07;1233.27;;;999.90;;
10890;SDS011;5498;50.928;11.598;2022-08-23T15:33:11;1237.90;;;999.90;;
10890;SDS011;5498;50.928;11.598;2022-08-23T15:36:13;1220.20;;;999.90;;
10890;SDS011;5498;50.928;11.598;2022-08-23T15:39:16;1239.53;;;999.90;;
10890;SDS011;5498;50.928;11.598;2022-08-23T15:42:19;1226.57;;;999.90;;
10890;SDS011;5498;50.928;11.598;2022-08-23T15:45:21;1229.67;;;999.90;;
10890;SDS011;5498;50.928;11.598;2022-08-23T15:48:24;1249.67;;;999.90;;
10890;SDS011;5498;50.928;11.598;2022-08-23T15:51:30;1237.93;;;999.90;;
10890;SDS011;5498;50.928;11.598;2022-08-23T15:54:32;1241.07;;;999.90;;
10890;SDS011;5498;50.928;11.598;2022-08-23T15:57:37;1220.97;;;999.90;;
10890;SDS011;5498;50.928;11.598;2022-08-23T16:00:43;1235.47;;;999.90;;
10890;SDS011;5498;50.928;11.598;2022-08-23T16:03:46;1234.03;;;999.90;;
10890;SDS011;5498;50.928;11.598;2022-08-23T16:06:48;1228.90;;;999.90;;
10890;SDS011;5498;50.928;11.598;2022-08-23T16:09:50;1239.63;;;999.90;;
10890;SDS011;5498;50.928;11.598;2022-08-23T16:12:54;1240.43;;;999.90;;
10890;SDS011;5498;50.928;11.598;2022-08-23T16:15:56;1237.27;;;999.90;;
10890;SDS011;5498;50.928;11.598;2022-08-23T16:18:58;1234.07;;;999.90;;
10890;SDS011;5498;50.928;11.598;2022-08-23T16:22:01;1241.87;;;999.90;;
10890;SDS011;5498;50.928;11.598;2022-08-23T16:25:03;1230.83;;;999.90;;
10890;SDS011;5498;50.928;11.598;2022-08-23T16:28:07;1246.80;;;999.90;;
10890;SDS011;5498;50.928;11.598;2022-08-23T16:31:10;1235.00;;;999.90;;
10890;SDS011;5498;50.928;11.598;2022-08-23T16:34:13;1237.60;;;999.90;;
10890;SDS011;5498;50.928;11.598;2022-08-23T16:37:18;1240.87;;;999.90;;
10890;SDS011;5498;50.928;11.598;2022-08-23T16:40:20;1238.63;;;999.90;;
10890;SDS011;5498;50.928;11.598;2022-08-23T16:43:23;1240.47;;;999.90;;
10890;SDS011;5498;50.928;11.598;2022-08-23T16:46:25;1237.40;;;999.90;;
10890;SDS011;5498;50.928;11.598;2022-08-23T16:49:28;1234.97;;;999.90;;
10890;SDS011;5498;50.928;11.598;2022-08-23T16:52:32;1237.50;;;999.90;;
10890;SDS011;5498;50.928;11.598;2022-08-23T16:55:35;1244.07;;;999.90;;
10890;SDS011;5498;50.928;11.598;2022-08-23T16:58:39;1234.17;;;999.90;;
10890;SDS011;5498;50.928;11.598;2022-08-23T17:01:43;1231.80;;;999.90;;
10890;SDS011;5498;50.928;11.598;2022-08-23T17:04:47;1235.23;;;999.90;;
10890;SDS011;5498;50.928;11.598;2022-08-23T17:07:49;1230.37;;;999.90;;
10890;SDS011;5498;50.928;11.598;2022-08-23T17:10:53;1245.83;;;999.90;;
10890;SDS011;5498;50.928;11.598;2022-08-23T17:13:56;1232.67;;;999.90;;
10890;SDS011;5498;50.928;11.598;2022-08-23T17:16:58;1254.03;;;999.90;;
10890;SDS011;5498;50.928;11.598;2022-08-23T17:20:00;1248.23;;;999.90;;
10890;SDS011;5498;50.928;11.598;2022-08-23T17:23:03;1244.43;;;999.90;;
10890;SDS011;5498;50.928;11.598;2022-08-23T17:26:06;1239.43;;;999.90;;
10890;SDS011;5498;50.928;11.598;2022-08-23T17:29:11;1229.30;;;999.90;;
10890;SDS011;5498;50.928;11.598;2022-08-23T17:32:12;1229.87;;;999.90;;
10890;SDS011;5498;50.928;11.598;2022-08-23T17:35:16;1230.93;;;999.90;;
10890;SDS011;5498;50.928;11.598;2022-08-23T17:38:22;1222.00;;;999.90;;
10890;SDS011;5498;50.928;11.598;2022-08-23T17:41:25;1218.40;;;999.90;;
10890;SDS011;5498;50.928;11.598;2022-08-23T17:44:28;1239.63;;;999.90;;
10890;SDS011;5498;50.928;11.598;2022-08-23T17:47:30;1229.90;;;999.90;;
10890;SDS011;5498;50.928;11.598;2022-08-23T17:50:32;1225.13;;;999.90;;
10890;SDS011;5498;50.928;11.598;2022-08-23T17:53:34;1229.73;;;999.90;;
10890;SDS011;5498;50.928;11.598;2022-08-23T17:56:36;1203.23;;;999.90;;
10890;SDS011;5498;50.928;11.598;2022-08-23T17:59:41;1223.93;;;999.90;;
10890;SDS011;5498;50.928;11.598;2022-08-23T18:02:43;1223.00;;;999.90;;
10890;SDS011;5498;50.928;11.598;2022-08-23T18:05:45;1222.03;;;999.90;;
10890;SDS011;5498;50.928;11.598;2022-08-23T18:08:48;1215.63;;;999.90;;
10890;SDS011;5498;50.928;11.598;2022-08-23T18:11:50;1219.37;;;999.90;;
10890;SDS011;5498;50.928;11.598;2022-08-23T18:14:53;1227.13;;;999.90;;
10890;SDS011;5498;50.928;11.598;2022-08-23T18:17:56;1205.53;;;999.90;;
10890;SDS011;5498;50.928;11.598;2022-08-23T18:21:02;1208.57;;;999.90;;
10890;SDS011;5498;50.928;11.598;2022-08-23T18:24:05;1221.37;;;999.90;;
10890;SDS011;5498;50.928;11.598;2022-08-23T18:27:08;1219.63;;;999.90;;
10890;SDS011;5498;50.928;11.598;2022-08-23T18:30:30;1211.53;;;999.90;;
10890;SDS011;5498;50.928;11.598;2022-08-23T18:33:32;1215.60;;;999.90;;